sensor_id;sensor_type;location;lat;lon;timestamp;temperature;humidity
71627;DHT22;59475;52.464;13.590;2023-03-21T00:00:14;8.91;76.50
71627;DHT22;59475;52.464;13.590;2023-03-21T00:02:40;8.91;76.52
71627;DHT22;59475;52.464;13.590;2023-03-21T00:05:05;8.95;76.61
71627;DHT22;59475;52.464;13.590;2023-03-21T00:07:31;8.98;76.69
71627;DHT22;59475;52.464;13.590;2023-03-21T00:09:56;8.95;77.05
71627;DHT22;59475;52.464;13.590;2023-03-21T00:12:23;8.98;77.35
71627;DHT22;59475;52.464;13.590;2023-03-21T00:14:48;8.89;77.71
71627;DHT22;59475;52.464;13.590;2023-03-21T00:17:15;8.82;78.25
71627;DHT22;59475;52.464;13.590;2023-03-21T00:19:40;8.75;79.26
71627;DHT22;59475;52.464;13.590;2023-03-21T00:22:06;8.73;77.68
71627;DHT22;59475;52.464;13.590;2023-03-21T00:24:32;8.71;78.49
71627;DHT22;59475;52.464;13.590;2023-03-21T00:26:57;8.69;78.67
71627;DHT22;59475;52.464;13.590;2023-03-21T00:29:23;8.71;77.95
71627;DHT22;59475;52.464;13.590;2023-03-21T00:31:48;8.71;78.61
71627;DHT22;59475;52.464;13.590;2023-03-21T00:34:14;8.69;77.59
71627;DHT22;59475;52.464;13.590;2023-03-21T00:36:39;8.65;78.88
71627;DHT22;59475;52.464;13.590;2023-03-21T00:39:05;8.61;78.74
71627;DHT22;59475;52.464;13.590;2023-03-21T00:41:30;8.58;79.04
71627;DHT22;59475;52.464;13.590;2023-03-21T00:43:56;8.55;78.78
71627;DHT22;59475;52.464;13.590;2023-03-21T00:46:21;8.58;78.12
71627;DHT22;59475;52.464;13.590;2023-03-21T00:48:47;8.60;78.46
71627;DHT22;59475;52.464;13.590;2023-03-21T00:51:21;8.65;77.87
71627;DHT22;59475;52.464;13.590;2023-03-21T00:53:52;8.58;78.60
71627;DHT22;59475;52.464;13.590;2023-03-21T00:56:17;8.60;78.23
71627;DHT22;59475;52.464;13.590;2023-03-21T00:58:43;8.55;78.92
71627;DHT22;59475;52.464;13.590;2023-03-21T01:01:08;8.51;78.55
71627;DHT22;59475;52.464;13.590;2023-03-21T01:03:33;8.45;78.96
71627;DHT22;59475;52.464;13.590;2023-03-21T01:06:10;8.44;79.00
71627;DHT22;59475;52.464;13.590;2023-03-21T01:08:40;8.44;79.31
71627;DHT22;59475;52.464;13.590;2023-03-21T01:11:12;8.38;79.73
71627;DHT22;59475;52.464;13.590;2023-03-21T01:13:38;8.43;80.55
71627;DHT22;59475;52.464;13.590;2023-03-21T01:16:04;8.38;80.53
71627;DHT22;59475;52.464;13.590;2023-03-21T01:18:30;8.41;80.80
71627;DHT22;59475;52.464;13.590;2023-03-21T01:20:58;8.37;81.07
71627;DHT22;59475;52.464;13.590;2023-03-21T01:23:25;8.38;80.81
71627;DHT22;59475;52.464;13.590;2023-03-21T01:25:52;8.36;81.25
71627;DHT22;59475;52.464;13.590;2023-03-21T01:28:18;8.38;80.82
71627;DHT22;59475;52.464;13.590;2023-03-21T01:30:48;8.30;81.05
71627;DHT22;59475;52.464;13.590;2023-03-21T01:33:14;8.29;81.61
71627;DHT22;59475;52.464;13.590;2023-03-21T01:35:40;8.26;82.58
71627;DHT22;59475;52.464;13.590;2023-03-21T01:38:05;8.26;82.95
71627;DHT22;59475;52.464;13.590;2023-03-21T01:40:31;8.20;83.21
71627;DHT22;59475;52.464;13.590;2023-03-21T01:42:57;8.19;83.53
71627;DHT22;59475;52.464;13.590;2023-03-21T01:48:26;8.03;84.52
71627;DHT22;59475;52.464;13.590;2023-03-21T01:50:54;7.99;84.61
71627;DHT22;59475;52.464;13.590;2023-03-21T01:53:21;7.93;84.92
71627;DHT22;59475;52.464;13.590;2023-03-21T01:55:48;7.99;84.58
71627;DHT22;59475;52.464;13.590;2023-03-21T01:58:14;7.95;84.98
71627;DHT22;59475;52.464;13.590;2023-03-21T02:00:43;8.02;83.25
71627;DHT22;59475;52.464;13.590;2023-03-21T02:03:10;7.97;83.61
71627;DHT22;59475;52.464;13.590;2023-03-21T02:08:12;7.92;84.04
71627;DHT22;59475;52.464;13.590;2023-03-21T02:10:39;7.90;84.16
71627;DHT22;59475;52.464;13.590;2023-03-21T02:13:07;7.90;84.19
71627;DHT22;59475;52.464;13.590;2023-03-21T02:15:38;7.88;84.37
71627;DHT22;59475;52.464;13.590;2023-03-21T02:31:33;7.97;83.43
71627;DHT22;59475;52.464;13.590;2023-03-21T02:37:11;8.03;82.90
71627;DHT22;59475;52.464;13.590;2023-03-21T02:42:59;8.00;83.18
71627;DHT22;59475;52.464;13.590;2023-03-21T02:45:32;8.00;83.05
71627;DHT22;59475;52.464;13.590;2023-03-21T02:48:22;8.00;82.74
71627;DHT22;59475;52.464;13.590;2023-03-21T02:50:51;7.99;82.56
71627;DHT22;59475;52.464;13.590;2023-03-21T02:53:19;7.99;83.17
71627;DHT22;59475;52.464;13.590;2023-03-21T02:55:47;8.02;82.91
71627;DHT22;59475;52.464;13.590;2023-03-21T02:58:18;8.06;83.07
71627;DHT22;59475;52.464;13.590;2023-03-21T03:00:44;8.00;83.11
71627;DHT22;59475;52.464;13.590;2023-03-21T03:03:11;7.99;83.22
71627;DHT22;59475;52.464;13.590;2023-03-21T03:05:44;8.02;83.41
71627;DHT22;59475;52.464;13.590;2023-03-21T03:14:01;7.90;84.09
71627;DHT22;59475;52.464;13.590;2023-03-21T03:16:35;7.93;84.01
71627;DHT22;59475;52.464;13.590;2023-03-21T03:19:08;7.97;83.85
71627;DHT22;59475;52.464;13.590;2023-03-21T03:21:43;7.93;83.91
71627;DHT22;59475;52.464;13.590;2023-03-21T03:24:19;7.95;84.06
71627;DHT22;59475;52.464;13.590;2023-03-21T03:29:29;7.95;84.12
71627;DHT22;59475;52.464;13.590;2023-03-21T03:32:00;7.92;84.24
71627;DHT22;59475;52.464;13.590;2023-03-21T03:34:34;7.92;84.70
71627;DHT22;59475;52.464;13.590;2023-03-21T03:37:07;7.95;84.17
71627;DHT22;59475;52.464;13.590;2023-03-21T03:39:40;7.93;84.91
71627;DHT22;59475;52.464;13.590;2023-03-21T03:42:13;7.92;84.78
71627;DHT22;59475;52.464;13.590;2023-03-21T03:44:40;7.89;84.88
71627;DHT22;59475;52.464;13.590;2023-03-21T03:47:20;7.88;84.99
71627;DHT22;59475;52.464;13.590;2023-03-21T03:49:56;7.88;85.15
71627;DHT22;59475;52.464;13.590;2023-03-21T03:52:29;7.85;85.45
71627;DHT22;59475;52.464;13.590;2023-03-21T03:54:55;7.85;85.58
71627;DHT22;59475;52.464;13.590;2023-03-21T03:57:21;7.85;85.63
71627;DHT22;59475;52.464;13.590;2023-03-21T03:59:47;7.83;85.74
71627;DHT22;59475;52.464;13.590;2023-03-21T04:02:12;7.81;86.02
71627;DHT22;59475;52.464;13.590;2023-03-21T04:04:39;7.79;86.30
71627;DHT22;59475;52.464;13.590;2023-03-21T04:07:06;7.79;86.26
71627;DHT22;59475;52.464;13.590;2023-03-21T04:09:32;7.75;86.70
71627;DHT22;59475;52.464;13.590;2023-03-21T04:11:57;7.78;86.71
71627;DHT22;59475;52.464;13.590;2023-03-21T04:14:24;7.72;86.80
71627;DHT22;59475;52.464;13.590;2023-03-21T04:16:50;7.74;86.92
71627;DHT22;59475;52.464;13.590;2023-03-21T04:19:17;7.68;87.04
71627;DHT22;59475;52.464;13.590;2023-03-21T04:21:42;7.67;87.16
71627;DHT22;59475;52.464;13.590;2023-03-21T04:24:08;7.68;87.42
71627;DHT22;59475;52.464;13.590;2023-03-21T04:26:34;7.64;87.46
71627;DHT22;59475;52.464;13.590;2023-03-21T04:29:00;7.68;87.36
71627;DHT22;59475;52.464;13.590;2023-03-21T04:31:27;7.67;87.69
71627;DHT22;59475;52.464;13.590;2023-03-21T04:33:59;7.64;87.79
71627;DHT22;59475;52.464;13.590;2023-03-21T04:36:24;7.64;87.87
71627;DHT22;59475;52.464;13.590;2023-03-21T04:38:53;7.67;87.73
71627;DHT22;59475;52.464;13.590;2023-03-21T04:41:19;7.67;87.81
71627;DHT22;59475;52.464;13.590;2023-03-21T04:43:45;7.65;87.85
71627;DHT22;59475;52.464;13.590;2023-03-21T04:46:11;7.71;87.97
71627;DHT22;59475;52.464;13.590;2023-03-21T04:48:36;7.64;88.08
71627;DHT22;59475;52.464;13.590;2023-03-21T04:51:02;7.61;88.32
71627;DHT22;59475;52.464;13.590;2023-03-21T04:53:27;7.59;88.27
71627;DHT22;59475;52.464;13.590;2023-03-21T04:55:53;7.57;88.46
71627;DHT22;59475;52.464;13.590;2023-03-21T04:58:18;7.58;88.44
71627;DHT22;59475;52.464;13.590;2023-03-21T05:00:45;7.57;88.41
71627;DHT22;59475;52.464;13.590;2023-03-21T05:03:10;7.51;88.61
71627;DHT22;59475;52.464;13.590;2023-03-21T05:05:44;7.48;88.63
71627;DHT22;59475;52.464;13.590;2023-03-21T05:08:09;7.48;88.74
71627;DHT22;59475;52.464;13.590;2023-03-21T05:10:35;7.55;88.70
71627;DHT22;59475;52.464;13.590;2023-03-21T05:13:00;7.52;88.55
71627;DHT22;59475;52.464;13.590;2023-03-21T05:15:25;7.44;88.77
71627;DHT22;59475;52.464;13.590;2023-03-21T05:17:51;7.46;88.93
71627;DHT22;59475;52.464;13.590;2023-03-21T05:20:16;7.46;89.10
71627;DHT22;59475;52.464;13.590;2023-03-21T05:22:42;7.48;88.89
71627;DHT22;59475;52.464;13.590;2023-03-21T05:25:10;7.48;89.01
71627;DHT22;59475;52.464;13.590;2023-03-21T05:27:37;7.50;89.10
71627;DHT22;59475;52.464;13.590;2023-03-21T05:30:15;7.51;88.92
71627;DHT22;59475;52.464;13.590;2023-03-21T05:32:41;7.50;88.96
71627;DHT22;59475;52.464;13.590;2023-03-21T05:35:07;7.51;88.99
71627;DHT22;59475;52.464;13.590;2023-03-21T05:37:33;7.54;88.84
71627;DHT22;59475;52.464;13.590;2023-03-21T05:39:58;7.51;89.05
71627;DHT22;59475;52.464;13.590;2023-03-21T05:42:24;7.55;88.85
71627;DHT22;59475;52.464;13.590;2023-03-21T05:44:49;7.59;88.95
71627;DHT22;59475;52.464;13.590;2023-03-21T05:47:16;7.59;89.21
71627;DHT22;59475;52.464;13.590;2023-03-21T05:49:42;7.57;89.15
71627;DHT22;59475;52.464;13.590;2023-03-21T05:52:08;7.51;89.46
71627;DHT22;59475;52.464;13.590;2023-03-21T05:54:33;7.59;89.73
71627;DHT22;59475;52.464;13.590;2023-03-21T05:56:59;7.61;89.60
71627;DHT22;59475;52.464;13.590;2023-03-21T05:59:25;7.62;89.54
71627;DHT22;59475;52.464;13.590;2023-03-21T06:01:50;7.62;89.45
71627;DHT22;59475;52.464;13.590;2023-03-21T06:04:16;7.68;89.27
71627;DHT22;59475;52.464;13.590;2023-03-21T06:06:41;7.68;89.27
71627;DHT22;59475;52.464;13.590;2023-03-21T06:09:07;7.74;89.23
71627;DHT22;59475;52.464;13.590;2023-03-21T06:11:35;7.74;89.41
71627;DHT22;59475;52.464;13.590;2023-03-21T06:14:01;7.79;89.39
71627;DHT22;59475;52.464;13.590;2023-03-21T06:16:27;7.82;89.24
71627;DHT22;59475;52.464;13.590;2023-03-21T06:18:53;7.83;89.38
71627;DHT22;59475;52.464;13.590;2023-03-21T06:21:19;7.89;89.04
71627;DHT22;59475;52.464;13.590;2023-03-21T06:23:44;7.89;89.13
71627;DHT22;59475;52.464;13.590;2023-03-21T06:26:11;7.93;88.96
71627;DHT22;59475;52.464;13.590;2023-03-21T06:28:37;7.88;88.91
71627;DHT22;59475;52.464;13.590;2023-03-21T06:31:03;7.85;89.14
71627;DHT22;59475;52.464;13.590;2023-03-21T06:33:28;7.79;89.09
71627;DHT22;59475;52.464;13.590;2023-03-21T06:35:56;7.78;89.40
71627;DHT22;59475;52.464;13.590;2023-03-21T06:38:22;7.81;89.39
71627;DHT22;59475;52.464;13.590;2023-03-21T06:40:48;7.86;89.44
71627;DHT22;59475;52.464;13.590;2023-03-21T06:43:15;7.92;89.11
71627;DHT22;59475;52.464;13.590;2023-03-21T06:45:40;7.92;89.29
71627;DHT22;59475;52.464;13.590;2023-03-21T06:48:06;8.03;89.25
71627;DHT22;59475;52.464;13.590;2023-03-21T06:50:31;8.02;88.91
71627;DHT22;59475;52.464;13.590;2023-03-21T06:52:57;8.02;88.88
71627;DHT22;59475;52.464;13.590;2023-03-21T06:55:24;7.99;88.88
71627;DHT22;59475;52.464;13.590;2023-03-21T06:57:52;7.96;88.76
71627;DHT22;59475;52.464;13.590;2023-03-21T07:00:18;7.93;89.14
71627;DHT22;59475;52.464;13.590;2023-03-21T07:02:44;7.96;89.16
71627;DHT22;59475;52.464;13.590;2023-03-21T07:05:11;8.02;89.36
71627;DHT22;59475;52.464;13.590;2023-03-21T07:07:38;8.05;88.99
71627;DHT22;59475;52.464;13.590;2023-03-21T07:10:04;8.12;89.14
71627;DHT22;59475;52.464;13.590;2023-03-21T07:12:30;8.14;89.08
71627;DHT22;59475;52.464;13.590;2023-03-21T07:15:01;8.20;88.89
71627;DHT22;59475;52.464;13.590;2023-03-21T07:17:26;8.23;88.72
71627;DHT22;59475;52.464;13.590;2023-03-21T07:19:52;8.27;88.91
71627;DHT22;59475;52.464;13.590;2023-03-21T07:22:17;8.38;88.90
71627;DHT22;59475;52.464;13.590;2023-03-21T07:24:43;8.30;88.73
71627;DHT22;59475;52.464;13.590;2023-03-21T07:27:12;8.20;88.93
71627;DHT22;59475;52.464;13.590;2023-03-21T07:29:38;8.19;89.28
71627;DHT22;59475;52.464;13.590;2023-03-21T07:32:03;8.17;89.71
71627;DHT22;59475;52.464;13.590;2023-03-21T07:34:29;8.16;89.99
71627;DHT22;59475;52.464;13.590;2023-03-21T07:36:59;8.12;90.10
71627;DHT22;59475;52.464;13.590;2023-03-21T07:39:25;8.09;89.58
71627;DHT22;59475;52.464;13.590;2023-03-21T07:41:51;8.03;90.12
71627;DHT22;59475;52.464;13.590;2023-03-21T07:44:22;8.10;90.32
71627;DHT22;59475;52.464;13.590;2023-03-21T07:46:48;8.13;90.20
71627;DHT22;59475;52.464;13.590;2023-03-21T07:49:13;8.09;90.01
71627;DHT22;59475;52.464;13.590;2023-03-21T07:51:39;8.10;90.23
71627;DHT22;59475;52.464;13.590;2023-03-21T07:54:04;8.09;90.21
71627;DHT22;59475;52.464;13.590;2023-03-21T07:56:31;8.17;90.25
71627;DHT22;59475;52.464;13.590;2023-03-21T07:58:56;8.19;90.24
71627;DHT22;59475;52.464;13.590;2023-03-21T08:01:23;8.20;90.26
71627;DHT22;59475;52.464;13.590;2023-03-21T08:03:48;8.22;90.11
71627;DHT22;59475;52.464;13.590;2023-03-21T08:06:15;8.24;90.26
71627;DHT22;59475;52.464;13.590;2023-03-21T08:08:40;8.24;89.97
71627;DHT22;59475;52.464;13.590;2023-03-21T08:11:06;8.23;89.97
71627;DHT22;59475;52.464;13.590;2023-03-21T08:13:32;8.22;90.07
71627;DHT22;59475;52.464;13.590;2023-03-21T08:15:57;8.20;90.14
71627;DHT22;59475;52.464;13.590;2023-03-21T08:18:23;8.26;90.24
71627;DHT22;59475;52.464;13.590;2023-03-21T08:20:53;8.27;90.38
71627;DHT22;59475;52.464;13.590;2023-03-21T08:23:18;8.32;90.13
71627;DHT22;59475;52.464;13.590;2023-03-21T08:25:44;8.32;90.24
71627;DHT22;59475;52.464;13.590;2023-03-21T08:28:09;8.30;90.33
71627;DHT22;59475;52.464;13.590;2023-03-21T08:30:34;8.32;90.50
71627;DHT22;59475;52.464;13.590;2023-03-21T08:33:02;8.30;90.31
71627;DHT22;59475;52.464;13.590;2023-03-21T08:35:29;8.37;90.71
71627;DHT22;59475;52.464;13.590;2023-03-21T08:37:55;8.43;90.67
71627;DHT22;59475;52.464;13.590;2023-03-21T08:40:21;8.50;90.37
71627;DHT22;59475;52.464;13.590;2023-03-21T08:42:46;8.53;89.98
71627;DHT22;59475;52.464;13.590;2023-03-21T08:45:15;8.57;90.20
71627;DHT22;59475;52.464;13.590;2023-03-21T08:47:40;8.61;90.26
71627;DHT22;59475;52.464;13.590;2023-03-21T08:50:10;8.67;90.09
71627;DHT22;59475;52.464;13.590;2023-03-21T08:52:36;8.71;90.40
71627;DHT22;59475;52.464;13.590;2023-03-21T08:55:02;8.73;90.45
71627;DHT22;59475;52.464;13.590;2023-03-21T08:57:28;8.76;90.47
71627;DHT22;59475;52.464;13.590;2023-03-21T08:59:54;8.69;90.43
71627;DHT22;59475;52.464;13.590;2023-03-21T09:02:20;8.69;90.97
71627;DHT22;59475;52.464;13.590;2023-03-21T09:04:45;8.68;90.92
71627;DHT22;59475;52.464;13.590;2023-03-21T09:07:12;8.68;91.43
71627;DHT22;59475;52.464;13.590;2023-03-21T09:09:39;8.60;91.58
71627;DHT22;59475;52.464;13.590;2023-03-21T09:12:05;8.69;91.85
71627;DHT22;59475;52.464;13.590;2023-03-21T09:14:31;8.72;91.81
71627;DHT22;59475;52.464;13.590;2023-03-21T09:16:57;8.72;91.46
71627;DHT22;59475;52.464;13.590;2023-03-21T09:19:22;8.75;91.34
71627;DHT22;59475;52.464;13.590;2023-03-21T09:21:48;8.83;91.80
71627;DHT22;59475;52.464;13.590;2023-03-21T09:24:14;9.00;91.85
71627;DHT22;59475;52.464;13.590;2023-03-21T09:26:40;9.09;91.14
71627;DHT22;59475;52.464;13.590;2023-03-21T09:29:05;9.15;90.80
71627;DHT22;59475;52.464;13.590;2023-03-21T09:31:31;9.17;90.64
71627;DHT22;59475;52.464;13.590;2023-03-21T09:33:57;9.27;90.64
71627;DHT22;59475;52.464;13.590;2023-03-21T09:36:23;9.29;89.77
71627;DHT22;59475;52.464;13.590;2023-03-21T09:38:52;9.26;90.28
71627;DHT22;59475;52.464;13.590;2023-03-21T09:42:02;9.46;90.10
71627;DHT22;59475;52.464;13.590;2023-03-21T09:47:24;9.52;89.23
71627;DHT22;59475;52.464;13.590;2023-03-21T09:49:57;9.55;88.94
71627;DHT22;59475;52.464;13.590;2023-03-21T09:52:42;9.68;88.87
71627;DHT22;59475;52.464;13.590;2023-03-21T09:55:21;9.89;89.27
71627;DHT22;59475;52.464;13.590;2023-03-21T09:57:54;9.98;88.88
71627;DHT22;59475;52.464;13.590;2023-03-21T10:00:26;10.14;88.06
71627;DHT22;59475;52.464;13.590;2023-03-21T10:02:58;10.29;88.16
71627;DHT22;59475;52.464;13.590;2023-03-21T10:05:30;10.41;87.54
71627;DHT22;59475;52.464;13.590;2023-03-21T10:08:49;10.43;86.35
71627;DHT22;59475;52.464;13.590;2023-03-21T10:13:48;10.19;86.49
71627;DHT22;59475;52.464;13.590;2023-03-21T10:16:31;10.10;87.17
71627;DHT22;59475;52.464;13.590;2023-03-21T10:18:59;10.13;86.79
71627;DHT22;59475;52.464;13.590;2023-03-21T10:21:27;10.22;86.43
71627;DHT22;59475;52.464;13.590;2023-03-21T10:23:55;10.26;86.64
71627;DHT22;59475;52.464;13.590;2023-03-21T10:26:23;10.28;86.18
71627;DHT22;59475;52.464;13.590;2023-03-21T10:28:51;10.23;85.92
71627;DHT22;59475;52.464;13.590;2023-03-21T10:31:20;10.32;86.53
71627;DHT22;59475;52.464;13.590;2023-03-21T10:33:50;10.53;86.47
71627;DHT22;59475;52.464;13.590;2023-03-21T10:36:20;10.72;85.46
71627;DHT22;59475;52.464;13.590;2023-03-21T10:38:48;10.85;84.76
71627;DHT22;59475;52.464;13.590;2023-03-21T10:41:15;10.89;84.32
71627;DHT22;59475;52.464;13.590;2023-03-21T10:43:41;10.91;84.60
71627;DHT22;59475;52.464;13.590;2023-03-21T10:46:16;10.94;84.19
71627;DHT22;59475;52.464;13.590;2023-03-21T10:48:43;10.92;84.09
71627;DHT22;59475;52.464;13.590;2023-03-21T10:51:17;10.91;83.89
71627;DHT22;59475;52.464;13.590;2023-03-21T10:53:49;10.84;84.24
71627;DHT22;59475;52.464;13.590;2023-03-21T10:56:16;10.81;84.32
71627;DHT22;59475;52.464;13.590;2023-03-21T10:58:44;10.89;84.09
71627;DHT22;59475;52.464;13.590;2023-03-21T11:01:23;10.91;83.99
71627;DHT22;59475;52.464;13.590;2023-03-21T11:04:00;10.95;83.76
71627;DHT22;59475;52.464;13.590;2023-03-21T11:06:31;10.91;83.77
71627;DHT22;59475;52.464;13.590;2023-03-21T11:09:05;10.96;83.86
71627;DHT22;59475;52.464;13.590;2023-03-21T11:12:02;11.01;83.27
71627;DHT22;59475;52.464;13.590;2023-03-21T11:14:39;11.04;83.33
71627;DHT22;59475;52.464;13.590;2023-03-21T11:19:49;11.02;82.84
71627;DHT22;59475;52.464;13.590;2023-03-21T11:22:16;10.99;83.54
71627;DHT22;59475;52.464;13.590;2023-03-21T11:24:51;11.06;82.90
71627;DHT22;59475;52.464;13.590;2023-03-21T11:27:17;11.05;82.92
71627;DHT22;59475;52.464;13.590;2023-03-21T11:29:48;11.13;83.22
71627;DHT22;59475;52.464;13.590;2023-03-21T11:32:36;11.19;83.07
71627;DHT22;59475;52.464;13.590;2023-03-21T11:37:40;11.23;82.25
71627;DHT22;59475;52.464;13.590;2023-03-21T11:40:25;11.11;82.61
71627;DHT22;59475;52.464;13.590;2023-03-21T11:45:34;11.15;82.76
71627;DHT22;59475;52.464;13.590;2023-03-21T11:48:12;11.16;82.65
71627;DHT22;59475;52.464;13.590;2023-03-21T11:50:44;11.18;82.47
71627;DHT22;59475;52.464;13.590;2023-03-21T11:53:42;11.23;82.92
71627;DHT22;59475;52.464;13.590;2023-03-21T11:56:26;11.22;82.44
71627;DHT22;59475;52.464;13.590;2023-03-21T12:07:39;11.08;82.56
71627;DHT22;59475;52.464;13.590;2023-03-21T12:10:30;11.09;82.53
71627;DHT22;59475;52.464;13.590;2023-03-21T12:15:42;11.22;82.46
71627;DHT22;59475;52.464;13.590;2023-03-21T12:18:20;11.26;82.35
71627;DHT22;59475;52.464;13.590;2023-03-21T12:21:00;11.25;82.18
71627;DHT22;59475;52.464;13.590;2023-03-21T12:26:42;11.43;81.97
71627;DHT22;59475;52.464;13.590;2023-03-21T12:29:32;11.57;81.31
71627;DHT22;59475;52.464;13.590;2023-03-21T12:32:09;11.56;81.12
71627;DHT22;59475;52.464;13.590;2023-03-21T12:37:32;11.61;80.87
71627;DHT22;59475;52.464;13.590;2023-03-21T12:40:11;11.57;81.03
71627;DHT22;59475;52.464;13.590;2023-03-21T12:45:18;11.75;81.17
71627;DHT22;59475;52.464;13.590;2023-03-21T12:47:49;11.82;80.47
71627;DHT22;59475;52.464;13.590;2023-03-21T12:50:26;11.81;80.28
71627;DHT22;59475;52.464;13.590;2023-03-21T12:52:57;11.85;80.13
71627;DHT22;59475;52.464;13.590;2023-03-21T12:55:27;11.88;80.41
71627;DHT22;59475;52.464;13.590;2023-03-21T12:58:10;11.87;80.18
71627;DHT22;59475;52.464;13.590;2023-03-21T13:00:59;11.91;80.30
71627;DHT22;59475;52.464;13.590;2023-03-21T13:03:36;11.91;80.04
71627;DHT22;59475;52.464;13.590;2023-03-21T13:06:08;11.88;80.23
71627;DHT22;59475;52.464;13.590;2023-03-21T13:11:22;11.87;80.17
71627;DHT22;59475;52.464;13.590;2023-03-21T13:14:03;11.88;80.31
71627;DHT22;59475;52.464;13.590;2023-03-21T13:16:40;11.98;80.61
71627;DHT22;59475;52.464;13.590;2023-03-21T13:26:44;12.12;80.06
71627;DHT22;59475;52.464;13.590;2023-03-21T13:31:47;12.05;80.11
71627;DHT22;59475;52.464;13.590;2023-03-21T13:34:13;12.01;80.28
71627;DHT22;59475;52.464;13.590;2023-03-21T13:36:39;11.92;79.97
71627;DHT22;59475;52.464;13.590;2023-03-21T13:39:16;11.92;80.25
71627;DHT22;59475;52.464;13.590;2023-03-21T13:41:44;11.95;80.41
71627;DHT22;59475;52.464;13.590;2023-03-21T13:44:43;12.04;80.15
71627;DHT22;59475;52.464;13.590;2023-03-21T13:47:40;11.94;80.42
71627;DHT22;59475;52.464;13.590;2023-03-21T13:52:40;12.01;80.34
71627;DHT22;59475;52.464;13.590;2023-03-21T13:55:16;12.02;80.42
71627;DHT22;59475;52.464;13.590;2023-03-21T13:57:45;12.02;80.42
71627;DHT22;59475;52.464;13.590;2023-03-21T14:00:25;12.04;80.45
71627;DHT22;59475;52.464;13.590;2023-03-21T14:05:21;11.99;80.51
71627;DHT22;59475;52.464;13.590;2023-03-21T14:07:52;12.01;80.75
71627;DHT22;59475;52.464;13.590;2023-03-21T14:10:23;12.11;80.82
71627;DHT22;59475;52.464;13.590;2023-03-21T14:12:50;12.18;79.94
71627;DHT22;59475;52.464;13.590;2023-03-21T14:17:58;12.22;80.17
71627;DHT22;59475;52.464;13.590;2023-03-21T14:20:29;12.19;80.13
71627;DHT22;59475;52.464;13.590;2023-03-21T14:22:55;12.26;80.23
71627;DHT22;59475;52.464;13.590;2023-03-21T14:25:22;12.32;80.77
71627;DHT22;59475;52.464;13.590;2023-03-21T14:27:52;12.30;79.82
71627;DHT22;59475;52.464;13.590;2023-03-21T14:30:22;12.28;80.21
71627;DHT22;59475;52.464;13.590;2023-03-21T14:32:48;12.30;80.25
71627;DHT22;59475;52.464;13.590;2023-03-21T14:35:13;12.36;80.64
71627;DHT22;59475;52.464;13.590;2023-03-21T14:37:41;12.35;80.89
71627;DHT22;59475;52.464;13.590;2023-03-21T14:40:20;12.43;81.35
71627;DHT22;59475;52.464;13.590;2023-03-21T14:42:47;12.52;81.15
71627;DHT22;59475;52.464;13.590;2023-03-21T14:47:53;12.61;80.55
71627;DHT22;59475;52.464;13.590;2023-03-21T14:50:19;12.59;80.85
71627;DHT22;59475;52.464;13.590;2023-03-21T14:52:51;12.71;80.88
71627;DHT22;59475;52.464;13.590;2023-03-21T14:55:17;12.71;80.02
71627;DHT22;59475;52.464;13.590;2023-03-21T14:57:43;12.73;80.33
71627;DHT22;59475;52.464;13.590;2023-03-21T15:00:17;12.80;80.33
71627;DHT22;59475;52.464;13.590;2023-03-21T15:02:44;12.90;79.44
71627;DHT22;59475;52.464;13.590;2023-03-21T15:08:21;12.83;78.89
71627;DHT22;59475;52.464;13.590;2023-03-21T15:10:59;12.64;79.23
71627;DHT22;59475;52.464;13.590;2023-03-21T15:13:52;12.65;79.65
71627;DHT22;59475;52.464;13.590;2023-03-21T15:16:20;12.65;79.20
71627;DHT22;59475;52.464;13.590;2023-03-21T15:18:46;12.61;78.84
71627;DHT22;59475;52.464;13.590;2023-03-21T15:21:29;12.65;79.48
71627;DHT22;59475;52.464;13.590;2023-03-21T15:24:14;12.76;79.23
71627;DHT22;59475;52.464;13.590;2023-03-21T15:26:48;12.80;79.08
71627;DHT22;59475;52.464;13.590;2023-03-21T15:29:15;12.87;78.84
71627;DHT22;59475;52.464;13.590;2023-03-21T15:31:41;12.85;78.54
71627;DHT22;59475;52.464;13.590;2023-03-21T15:34:16;12.88;78.71
71627;DHT22;59475;52.464;13.590;2023-03-21T15:36:45;12.84;78.72
71627;DHT22;59475;52.464;13.590;2023-03-21T15:39:19;12.81;79.15
71627;DHT22;59475;52.464;13.590;2023-03-21T15:42:00;12.79;79.03
71627;DHT22;59475;52.464;13.590;2023-03-21T15:44:27;12.73;79.19
71627;DHT22;59475;52.464;13.590;2023-03-21T15:46:54;12.70;79.52
71627;DHT22;59475;52.464;13.590;2023-03-21T15:49:33;12.64;79.57
71627;DHT22;59475;52.464;13.590;2023-03-21T15:52:03;12.63;79.68
71627;DHT22;59475;52.464;13.590;2023-03-21T15:54:39;12.63;79.81
71627;DHT22;59475;52.464;13.590;2023-03-21T15:57:20;12.60;79.54
71627;DHT22;59475;52.464;13.590;2023-03-21T15:59:46;12.59;80.02
71627;DHT22;59475;52.464;13.590;2023-03-21T16:02:19;12.50;79.74
71627;DHT22;59475;52.464;13.590;2023-03-21T16:05:00;12.46;80.20
71627;DHT22;59475;52.464;13.590;2023-03-21T16:07:26;12.45;80.62
71627;DHT22;59475;52.464;13.590;2023-03-21T16:10:00;12.42;80.66
71627;DHT22;59475;52.464;13.590;2023-03-21T16:12:26;12.42;80.60
71627;DHT22;59475;52.464;13.590;2023-03-21T16:14:52;12.42;80.48
71627;DHT22;59475;52.464;13.590;2023-03-21T16:17:27;12.42;80.68
71627;DHT22;59475;52.464;13.590;2023-03-21T16:19:55;12.42;80.79
71627;DHT22;59475;52.464;13.590;2023-03-21T16:22:20;12.42;80.72
71627;DHT22;59475;52.464;13.590;2023-03-21T16:24:47;12.33;81.05
71627;DHT22;59475;52.464;13.590;2023-03-21T16:27:13;12.33;80.97
71627;DHT22;59475;52.464;13.590;2023-03-21T16:29:39;12.30;80.93
71627;DHT22;59475;52.464;13.590;2023-03-21T16:32:11;12.28;81.05
71627;DHT22;59475;52.464;13.590;2023-03-21T16:34:39;12.22;81.28
71627;DHT22;59475;52.464;13.590;2023-03-21T16:37:05;12.24;81.34
71627;DHT22;59475;52.464;13.590;2023-03-21T16:39:30;12.24;81.29
71627;DHT22;59475;52.464;13.590;2023-03-21T16:41:56;12.19;81.55
71627;DHT22;59475;52.464;13.590;2023-03-21T16:44:22;12.16;81.50
71627;DHT22;59475;52.464;13.590;2023-03-21T16:46:47;12.16;81.61
71627;DHT22;59475;52.464;13.590;2023-03-21T16:49:24;12.14;81.93
71627;DHT22;59475;52.464;13.590;2023-03-21T16:51:51;12.15;81.75
71627;DHT22;59475;52.464;13.590;2023-03-21T16:54:17;12.09;81.87
71627;DHT22;59475;52.464;13.590;2023-03-21T16:56:45;12.09;81.93
71627;DHT22;59475;52.464;13.590;2023-03-21T16:59:13;12.06;82.09
71627;DHT22;59475;52.464;13.590;2023-03-21T17:01:38;12.05;82.26
71627;DHT22;59475;52.464;13.590;2023-03-21T17:04:05;12.05;82.19
71627;DHT22;59475;52.464;13.590;2023-03-21T17:06:32;12.01;82.36
71627;DHT22;59475;52.464;13.590;2023-03-21T17:09:01;12.01;82.38
71627;DHT22;59475;52.464;13.590;2023-03-21T17:11:26;11.99;82.48